Time;durP1;ratioP1;P1;durP2;ratioP2;P2;SDS_P1;SDS_P2;PMS_P1;PMS_P2;Temp;Humidity;BMP_temperature;BMP_pressure;BME280_temperature;BME280_humidity;BME280_pressure;Samples;Min_cycle;Max_cycle;Signal;HPM_P1;HPM_P2
2021/06/14 00:02:18;;;;;;;1.53;1.17;;;;;;;11.41;88.55;96320.22;5076464;28;20252;-68
2021/06/14 00:04:46;;;;;;;0.93;0.73;;;;;;;11.42;88.81;96310.47;5084504;28;20239;-70
2021/06/14 00:07:16;;;;;;;1.63;1.33;;;;;;;11.39;88.39;96315.09;5068232;28;20738;-70
2021/06/14 00:09:44;;;;;;;1.37;1.27;;;;;;;11.36;87.54;96306.72;5082697;28;20308;-70
2021/06/14 00:12:20;;;;;;;1.90;1.80;;;;;;;11.26;86.99;96311.38;5084525;28;20569;-70
2021/06/14 00:14:50;;;;;;;5.63;0.93;;;;;;;11.10;87.63;96296.41;5076781;28;20272;-70
2021/06/14 00:17:19;;;;;;;1.00;1.00;;;;;;;10.93;87.78;96298.28;5077164;28;20706;-71
2021/06/14 00:19:48;;;;;;;1.33;1.30;;;;;;;10.89;88.57;96304.94;5086455;28;20309;-70
2021/06/14 00:22:17;;;;;;;1.13;1.00;;;;;;;10.85;88.08;96308.88;5086709;28;20602;-70
2021/06/14 00:24:45;;;;;;;0.93;0.90;;;;;;;10.74;88.19;96299.50;5075752;28;20304;-70
2021/06/14 00:27:15;;;;;;;1.80;1.53;;;;;;;10.67;89.01;96301.16;5084973;28;20225;-70
2021/06/14 00:29:43;;;;;;;3.03;2.83;;;;;;;10.66;89.91;96303.97;5086969;28;20697;-70
2021/06/14 00:32:11;;;;;;;1.50;1.40;;;;;;;10.63;90.30;96299.06;5098794;28;20236;-70
2021/06/14 00:34:39;;;;;;;1.53;1.43;;;;;;;10.65;90.88;96297.06;5067622;28;20723;-70
2021/06/14 00:37:07;;;;;;;0.80;0.80;;;;;;;10.68;91.11;96284.34;5075914;28;20325;-70
2021/06/14 00:39:36;;;;;;;2.67;1.03;;;;;;;10.69;91.85;96287.78;5078411;28;20212;-70
2021/06/14 00:42:05;;;;;;;1.60;1.50;;;;;;;10.70;91.83;96286.84;5083484;28;20317;-70
2021/06/14 00:44:34;;;;;;;2.73;2.53;;;;;;;10.70;91.76;96289.47;5064520;28;20888;-70
2021/06/14 00:47:03;;;;;;;1.50;1.30;;;;;;;10.69;91.57;96287.78;5063960;28;20719;-70
2021/06/14 00:49:32;;;;;;;3.87;1.80;;;;;;;10.66;91.34;96278.41;5085400;28;20220;-70
2021/06/14 00:52:00;;;;;;;1.27;1.00;;;;;;;10.63;91.09;96273.47;5083249;28;20233;-70
2021/06/14 00:54:28;;;;;;;1.13;1.10;;;;;;;10.65;91.24;96279.41;5070659;28;20318;-70
2021/06/14 00:56:56;;;;;;;3.43;2.20;;;;;;;10.66;91.25;96273.13;5066509;28;20231;-70
2021/06/14 00:59:25;;;;;;;1.23;1.23;;;;;;;10.69;91.83;96275.41;5070648;28;20243;-70
2021/06/14 01:01:55;;;;;;;1.00;1.00;;;;;;;10.71;92.32;96273.47;5083737;28;20286;-70
2021/06/14 01:04:23;;;;;;;3.73;1.37;;;;;;;10.76;92.27;96272.94;5099581;28;20221;-70
2021/06/14 01:06:51;;;;;;;1.53;1.43;;;;;;;10.74;92.14;96269.66;5078961;28;20224;-70
2021/06/14 01:09:20;;;;;;;1.77;1.67;;;;;;;10.74;92.07;96272.28;5082302;28;20244;-70
2021/06/14 01:11:53;;;;;;;1.30;1.20;;;;;;;10.72;92.05;96264.53;5085791;28;20220;-70
2021/06/14 01:14:30;;;;;;;2.00;1.30;;;;;;;10.73;91.81;96266.19;5082492;28;20245;-69
2021/06/14 01:17:07;;;;;;;1.17;1.17;;;;;;;10.71;92.22;96270.00;5084074;28;20686;-70
2021/06/14 01:20:04;;;;;;;1.83;1.73;;;;;;;10.71;91.97;96270.81;5075735;28;20225;-70
2021/06/14 01:23:13;;;;;;;1.67;1.57;;;;;;;10.64;92.00;96266.38;5094569;28;20218;-70
2021/06/14 01:25:51;;;;;;;1.37;1.37;;;;;;;10.58;91.72;96264.41;5052995;28;20317;-70
2021/06/14 01:28:23;;;;;;;3.40;1.63;;;;;;;10.52;92.06;96261.47;5063867;28;20633;-70
2021/06/14 01:30:54;;;;;;;1.20;1.10;;;;;;;10.51;92.28;96254.53;5081345;28;20297;-70
2021/06/14 01:33:26;;;;;;;1.57;1.47;;;;;;;10.47;92.03;96252.41;5088092;28;20432;-70
2021/06/14 01:35:58;;;;;;;1.60;1.50;;;;;;;10.43;92.10;96249.28;5069393;28;20226;-70
2021/06/14 01:38:31;;;;;;;1.50;1.40;;;;;;;10.41;92.20;96248.59;5082200;28;20224;-70
2021/06/14 01:41:06;;;;;;;1.63;1.20;;;;;;;10.39;92.47;96250.59;5083928;28;20958;-70
2021/06/14 01:43:37;;;;;;;0.93;0.93;;;;;;;10.34;91.89;96237.09;5066963;28;20233;-70
2021/06/14 01:46:09;;;;;;;1.63;1.57;;;;;;;10.28;92.13;96237.75;5087757;28;20225;-70
2021/06/14 01:48:39;;;;;;;1.87;1.20;;;;;;;10.24;91.77;96236.44;5074709;28;20691;-70
2021/06/14 01:51:11;;;;;;;1.50;1.20;;;;;;;10.20;91.86;96235.09;5085614;28;20230;-70
2021/06/14 01:54:02;;;;;;;1.10;1.10;;;;;;;10.16;91.98;96236.44;5093999;28;20263;-70
2021/06/14 01:56:37;;;;;;;1.40;0.90;;;;;;;10.13;92.50;96237.56;5067035;28;20291;-69
2021/06/14 01:59:10;;;;;;;1.17;1.17;;;;;;;10.16;92.78;96223.25;5071748;28;20282;-70
2021/06/14 02:01:39;;;;;;;1.50;1.20;;;;;;;10.18;93.12;96231.81;5083641;28;20218;-70
2021/06/14 02:04:08;;;;;;;2.53;1.53;;;;;;;10.22;93.44;96227.88;5081829;28;20279;-70
2021/06/14 02:06:57;;;;;;;0.97;0.90;;;;;;;10.24;93.28;96225.88;5081059;28;20221;-69
2021/06/14 02:09:27;;;;;;;1.67;1.57;;;;;;;10.25;93.02;96214.38;5093666;27;20218;-70
2021/06/14 02:11:59;;;;;;;2.40;2.17;;;;;;;10.29;93.09;96215.66;5102152;28;20228;-69
2021/06/14 02:14:30;;;;;;;1.10;1.00;;;;;;;10.29;92.34;96207.75;5102531;28;20236;-70
2021/06/14 02:17:04;;;;;;;2.70;1.40;;;;;;;10.29;92.33;96207.75;5082629;28;20221;-70
2021/06/14 02:19:32;;;;;;;7.47;3.20;;;;;;;10.32;92.62;96207.41;5084545;28;20221;-69
2021/06/14 02:22:01;;;;;;;1.53;1.43;;;;;;;10.35;92.40;96201.81;5101959;28;20271;-69
2021/06/14 02:24:30;;;;;;;2.20;1.47;;;;;;;10.25;92.01;96201.19;5070202;28;20265;-70
2021/06/14 02:26:58;;;;;;;1.93;1.77;;;;;;;10.22;92.62;96207.59;5085564;28;20741;-70
2021/06/14 02:29:27;;;;;;;2.47;1.33;;;;;;;10.20;92.64;96208.72;5086113;28;20224;-70
2021/06/14 02:31:57;;;;;;;3.70;2.13;;;;;;;10.13;92.66;96213.03;5083278;28;20221;-69
2021/06/14 02:34:26;;;;;;;2.93;2.73;;;;;;;10.12;92.68;96211.38;5084984;28;20225;-70
2021/06/14 02:36:56;;;;;;;1.23;1.17;;;;;;;10.09;92.96;96212.53;5083972;28;20304;-70
2021/06/14 02:39:30;;;;;;;0.77;0.77;;;;;;;10.07;93.21;96213.72;5078191;28;20232;-70
2021/06/14 02:42:00;;;;;;;1.33;1.07;;;;;;;10.02;93.08;96210.72;5084963;28;20229;-70
2021/06/14 02:44:29;;;;;;;2.80;1.20;;;;;;;10.02;92.90;96208.09;5074675;28;20226;-70
2021/06/14 02:47:05;;;;;;;1.63;1.20;;;;;;;9.96;92.88;96202.47;5090022;28;20789;-70
2021/06/14 02:49:34;;;;;;;0.70;0.70;;;;;;;9.93;92.66;96207.28;5061079;28;20318;-70
2021/06/14 02:52:06;;;;;;;1.37;1.27;;;;;;;9.89;92.98;96206.81;5064606;28;20236;-69
2021/06/14 02:54:39;;;;;;;1.03;1.03;;;;;;;9.87;93.72;96198.22;5049993;28;20238;-68
2021/06/14 02:57:11;;;;;;;1.30;1.20;;;;;;;9.87;93.91;96208.75;5070105;28;20219;-68
2021/06/14 02:59:41;;;;;;;1.07;1.07;;;;;;;9.85;93.73;96216.00;5093630;28;20220;-69
2021/06/14 03:02:14;;;;;;;3.17;2.97;;;;;;;9.84;93.62;96198.56;5098719;28;20242;-69
2021/06/14 03:04:43;;;;;;;2.57;1.70;;;;;;;9.80;93.54;96199.06;5084567;28;20248;-68
2021/06/14 03:07:11;;;;;;;1.60;1.50;;;;;;;9.75;93.58;96199.53;5089557;27;20235;-69
2021/06/14 03:09:40;;;;;;;2.27;1.97;;;;;;;9.73;93.75;96201.53;5082279;28;20224;-68
2021/06/14 03:12:09;;;;;;;2.97;1.57;;;;;;;9.71;93.96;96208.78;5086762;28;20881;-68
2021/06/14 03:14:38;;;;;;;3.57;2.53;;;;;;;9.69;93.82;96200.19;5089645;27;20320;-68
2021/06/14 03:17:07;;;;;;;1.80;1.70;;;;;;;9.63;94.08;96195.59;5068651;28;20303;-68
2021/06/14 03:19:40;;;;;;;1.63;1.37;;;;;;;9.62;93.61;96201.88;5090063;28;20233;-69
2021/06/14 03:22:10;;;;;;;2.30;2.10;;;;;;;9.61;94.01;96197.59;5094204;28;20230;-69
2021/06/14 03:24:39;;;;;;;2.40;1.67;;;;;;;9.61;93.68;96202.84;5076042;28;20232;-68
2021/06/14 03:27:10;;;;;;;2.10;2.00;;;;;;;9.61;93.80;96208.13;5083131;28;20212;-69
2021/06/14 03:29:40;;;;;;;1.80;1.70;;;;;;;9.63;94.21;96206.97;5087920;28;20247;-69
2021/06/14 03:32:09;;;;;;;1.77;1.67;;;;;;;9.68;94.18;96209.09;5081204;28;20220;-69
2021/06/14 03:34:40;;;;;;;1.97;1.83;;;;;;;9.71;93.53;96207.97;5085155;28;20232;-68
2021/06/14 03:37:09;;;;;;;2.10;1.63;;;;;;;9.75;93.48;96209.25;5077946;28;20228;-68
2021/06/14 03:39:40;;;;;;;3.33;2.30;;;;;;;9.78;92.69;96201.84;5086299;28;20730;-69
2021/06/14 03:42:08;;;;;;;1.93;1.73;;;;;;;9.79;92.81;96205.34;5084118;28;20324;-69
2021/06/14 03:44:37;;;;;;;1.93;1.83;;;;;;;9.86;92.04;96207.13;5097482;28;20297;-68
2021/06/14 03:47:05;;;;;;;2.47;1.90;;;;;;;9.92;91.85;96211.72;5071278;28;20224;-69
2021/06/14 03:49:34;;;;;;;2.83;1.57;;;;;;;9.95;91.71;96215.84;5084832;28;20228;-69
2021/06/14 03:52:04;;;;;;;2.60;2.47;;;;;;;9.98;91.99;96208.44;5085057;28;20236;-69
2021/06/14 03:54:32;;;;;;;8.97;3.27;;;;;;;10.04;91.74;96214.03;5069158;28;20862;-68
2021/06/14 03:57:00;;;;;;;6.07;3.03;;;;;;;10.01;90.76;96224.91;5069603;28;20221;-68
2021/06/14 03:59:29;;;;;;;2.97;2.70;;;;;;;9.95;90.50;96227.22;5081455;28;20297;-68
2021/06/14 04:01:57;;;;;;;2.77;1.70;;;;;;;9.88;90.17;96228.88;5076794;28;20229;-69
2021/06/14 04:04:40;;;;;;;2.97;2.50;;;;;;;9.83;90.71;96225.09;5087158;28;20240;-69
2021/06/14 04:07:28;;;;;;;1.47;1.40;;;;;;;9.86;90.74;96222.94;5057778;28;20701;-68
2021/06/14 04:09:59;;;;;;;2.13;2.03;;;;;;;9.92;90.85;96226.72;5065591;28;20244;-68
2021/06/14 04:12:28;;;;;;;1.63;1.53;;;;;;;10.03;90.99;96222.94;5063028;28;20552;-69
2021/06/14 04:14:56;;;;;;;2.23;2.03;;;;;;;10.11;91.03;96215.84;5073846;28;20709;-68
2021/06/14 04:17:25;;;;;;;2.50;1.67;;;;;;;10.22;91.46;96218.13;5076152;28;20221;-68
2021/06/14 04:19:56;;;;;;;2.03;1.77;;;;;;;10.32;91.03;96228.50;5066779;28;20220;-68
2021/06/14 04:22:24;;;;;;;2.27;1.87;;;;;;;10.42;90.41;96229.16;5065104;28;20241;-69
2021/06/14 04:24:53;;;;;;;2.30;2.17;;;;;;;10.51;90.03;96225.53;5062014;28;20407;-68
2021/06/14 04:27:22;;;;;;;2.30;2.10;;;;;;;10.62;90.10;96221.69;5068737;28;20300;-69
2021/06/14 04:29:50;;;;;;;1.90;1.80;;;;;;;10.72;89.89;96224.13;5075797;28;20304;-69
2021/06/14 04:32:18;;;;;;;2.00;1.90;;;;;;;10.81;89.83;96225.75;5071247;28;20575;-69
2021/06/14 04:34:46;;;;;;;2.37;2.27;;;;;;;10.90;89.79;96227.34;5068627;28;20310;-69
2021/06/14 04:37:14;;;;;;;3.83;3.53;;;;;;;10.96;89.23;96220.53;5072599;28;20217;-69
2021/06/14 04:39:42;;;;;;;2.63;2.43;;;;;;;11.04;89.07;96221.31;5070975;28;20252;-69
2021/06/14 04:42:11;;;;;;;3.00;2.73;;;;;;;11.13;89.11;96218.66;5074432;28;20483;-69
2021/06/14 04:44:39;;;;;;;3.07;2.77;;;;;;;11.17;88.75;96212.03;5082424;28;20264;-69
2021/06/14 04:47:07;;;;;;;2.37;2.13;;;;;;;11.31;88.86;96219.19;5081069;28;20706;-69
2021/06/14 04:49:35;;;;;;;2.10;2.00;;;;;;;11.40;88.19;96218.16;5080728;28;20271;-68
2021/06/14 04:52:04;;;;;;;3.50;3.30;;;;;;;11.53;86.90;96212.31;5082147;28;20627;-69
2021/06/14 04:54:32;;;;;;;5.47;4.67;;;;;;;11.65;86.11;96211.72;5075984;28;20251;-69
2021/06/14 04:57:00;;;;;;;2.90;2.70;;;;;;;11.82;84.87;96203.69;5077457;28;20278;-69
2021/06/14 04:59:29;;;;;;;2.03;1.93;;;;;;;11.99;84.13;96207.00;5077094;28;20249;-68
2021/06/14 05:01:57;;;;;;;10.07;3.70;;;;;;;12.05;82.95;96201.81;5077005;28;20249;-69
2021/06/14 05:04:25;;;;;;;4.00;3.07;;;;;;;12.14;82.89;96197.25;5078861;28;20241;-69
2021/06/14 05:06:54;;;;;;;3.00;2.70;;;;;;;12.24;82.83;96205.75;5078218;28;20304;-68
2021/06/14 05:09:21;;;;;;;3.53;2.70;;;;;;;12.35;81.99;96210.63;5078340;28;20660;-66
2021/06/14 05:11:50;;;;;;;5.93;5.40;;;;;;;12.37;82.11;96199.84;5078880;28;20478;-66
2021/06/14 05:14:18;;;;;;;2.83;2.57;;;;;;;12.45;82.30;96208.53;5079588;28;20234;-67
2021/06/14 05:16:47;;;;;;;3.43;3.23;;;;;;;12.57;82.51;96200.97;5083822;28;20426;-66
2021/06/14 05:19:15;;;;;;;5.50;4.40;;;;;;;12.71;82.78;96201.94;5082603;28;20300;-67
2021/06/14 05:21:43;;;;;;;2.87;2.67;;;;;;;12.77;81.70;96207.34;5085266;28;20694;-67
2021/06/14 05:24:11;;;;;;;2.97;2.80;;;;;;;12.87;81.51;96203.56;5083236;28;20245;-67
2021/06/14 05:26:39;;;;;;;2.87;2.67;;;;;;;12.92;81.32;96202.03;5082132;28;20284;-66
2021/06/14 05:29:07;;;;;;;3.47;3.17;;;;;;;13.01;81.45;96200.91;5080437;28;20320;-67
2021/06/14 05:31:35;;;;;;;4.37;2.70;;;;;;;13.13;81.78;96195.94;5082573;28;20217;-66
2021/06/14 05:34:04;;;;;;;2.67;2.47;;;;;;;13.25;81.78;96205.09;5084653;28;20228;-67
2021/06/14 05:36:33;;;;;;;3.67;2.23;;;;;;;13.40;81.46;96204.22;5080456;28;20300;-67
2021/06/14 05:39:02;;;;;;;3.23;2.93;;;;;;;13.43;78.87;96201.19;5075758;28;20217;-66
2021/06/14 05:41:30;;;;;;;4.20;2.77;;;;;;;13.56;78.70;96198.69;5082917;28;20302;-67
2021/06/14 05:43:58;;;;;;;3.27;2.90;;;;;;;13.66;78.85;96196.53;5077493;28;20233;-67
2021/06/14 05:46:26;;;;;;;6.37;4.20;;;;;;;13.76;79.12;96185.63;5082947;28;20329;-67
2021/06/14 05:48:54;;;;;;;2.73;2.53;;;;;;;13.83;77.11;96192.63;5080580;28;20316;-67
2021/06/14 05:51:24;;;;;;;3.13;2.93;;;;;;;13.89;76.82;96194.50;5080845;28;20237;-67
2021/06/14 05:53:51;;;;;;;2.67;2.30;;;;;;;13.97;76.75;96187.41;5080030;28;20241;-67
2021/06/14 05:56:19;;;;;;;3.33;3.03;;;;;;;14.05;77.24;96184.63;5079958;28;20309;-67
2021/06/14 05:58:47;;;;;;;2.20;1.90;;;;;;;14.13;75.71;96193.28;5079332;28;20774;-67
2021/06/14 06:01:15;;;;;;;3.43;3.13;;;;;;;14.22;75.87;96185.97;5082269;28;20224;-67
2021/06/14 06:03:43;;;;;;;4.13;3.73;;;;;;;14.30;76.14;96183.19;5075323;28;20271;-67
2021/06/14 06:06:11;;;;;;;3.57;3.27;;;;;;;14.41;76.02;96179.97;5080423;28;20317;-67
2021/06/14 06:08:40;;;;;;;4.07;2.50;;;;;;;14.52;75.69;96181.31;5074989;28;20316;-67
2021/06/14 06:11:08;;;;;;;3.00;2.80;;;;;;;14.64;74.90;96170.97;5080786;28;20242;-66
2021/06/14 06:13:36;;;;;;;4.77;2.83;;;;;;;14.68;75.27;96170.34;5073933;28;20252;-67
2021/06/14 06:16:05;;;;;;;2.87;2.67;;;;;;;14.73;74.96;96170.59;5082490;28;20267;-69
2021/06/14 06:18:33;;;;;;;6.67;2.63;;;;;;;14.82;75.28;96173.91;5066976;28;20218;-67
2021/06/14 06:21:01;;;;;;;3.40;2.37;;;;;;;14.89;74.73;96166.78;5057300;28;20218;-68
2021/06/14 06:23:29;;;;;;;4.97;2.30;;;;;;;15.00;74.83;96158.25;5055010;28;20557;-67
2021/06/14 06:25:59;;;;;;;3.10;2.30;;;;;;;15.22;74.51;96166.09;5059944;28;20226;-67
2021/06/14 06:28:27;;;;;;;3.40;3.10;;;;;;;15.35;73.64;96158.13;5060653;28;20226;-67
2021/06/14 06:30:55;;;;;;;4.50;3.33;;;;;;;15.36;73.83;96149.13;5083877;28;20356;-68
2021/06/14 06:33:23;;;;;;;7.23;2.93;;;;;;;15.47;74.01;96153.88;5076932;28;20939;-67
2021/06/14 06:35:51;;;;;;;2.90;2.70;;;;;;;15.59;74.35;96149.59;5077418;28;20229;-67
2021/06/14 06:38:19;;;;;;;3.47;3.17;;;;;;;15.79;74.61;96160.28;5080920;28;20665;-67
2021/06/14 06:40:47;;;;;;;3.27;2.93;;;;;;;15.93;71.81;96153.13;5072557;28;20328;-67
2021/06/14 06:43:17;;;;;;;2.50;2.40;;;;;;;16.13;73.55;96153.94;5082947;28;20222;-69
2021/06/14 06:45:46;;;;;;;2.97;2.77;;;;;;;16.32;73.31;96154.94;5081769;28;20241;-68
2021/06/14 06:48:21;;;;;;;3.00;2.70;;;;;;;16.44;72.52;96160.44;5076298;28;20209;-67
2021/06/14 06:50:50;;;;;;;4.53;2.37;;;;;;;16.65;72.01;96154.03;5074421;28;20267;-67
2021/06/14 06:53:18;;;;;;;5.90;1.73;;;;;;;16.83;71.11;96158.75;5070899;28;20272;-67
2021/06/14 06:55:47;;;;;;;3.30;3.10;;;;;;;17.06;71.07;96153.69;5078399;28;20367;-67
2021/06/14 06:58:15;;;;;;;2.50;2.30;;;;;;;17.26;70.09;96159.75;5077236;28;22660;-67
2021/06/14 07:00:47;;;;;;;3.13;2.83;;;;;;;17.44;69.41;96160.88;5079256;28;20296;-67
2021/06/14 07:03:16;;;;;;;5.03;3.70;;;;;;;17.53;69.02;96157.75;5078047;28;20241;-67
2021/06/14 07:05:46;;;;;;;6.83;3.07;;;;;;;17.69;68.50;96158.28;5078935;28;20874;-67
2021/06/14 07:08:14;;;;;;;3.53;2.27;;;;;;;17.71;66.66;96159.72;5074960;28;20234;-67
2021/06/14 07:10:43;;;;;;;2.20;1.77;;;;;;;17.83;66.83;96166.03;5081867;28;20249;-68
2021/06/14 07:13:12;;;;;;;5.00;3.27;;;;;;;17.97;65.63;96157.91;5080279;28;20303;-67
2021/06/14 07:15:40;;;;;;;2.53;2.33;;;;;;;18.09;65.50;96158.81;5078684;28;20987;-68
2021/06/14 07:18:09;;;;;;;3.07;2.30;;;;;;;18.20;64.47;96163.47;5076039;28;20342;-68
2021/06/14 07:20:59;;;;;;;3.57;3.23;;;;;;;18.33;64.45;96166.00;5081008;28;20221;-68
2021/06/14 07:23:27;;;;;;;3.87;2.77;;;;;;;18.38;63.59;96157.34;5072993;28;20222;-67
2021/06/14 07:25:55;;;;;;;2.73;1.80;;;;;;;18.47;63.91;96161.38;5082016;28;20281;-67
2021/06/14 07:28:23;;;;;;;1.77;1.67;;;;;;;18.73;61.35;96157.59;5080495;28;20245;-68
2021/06/14 07:30:51;;;;;;;2.37;2.20;;;;;;;18.78;60.02;96168.47;5074450;28;20222;-68
2021/06/14 07:33:21;;;;;;;3.13;2.93;;;;;;;18.75;59.86;96171.59;5080019;28;20300;-67
2021/06/14 07:35:49;;;;;;;2.93;2.13;;;;;;;18.94;60.27;96159.84;5077699;28;20742;-68
2021/06/14 07:38:16;;;;;;;5.07;4.13;;;;;;;19.14;57.92;96164.13;5077163;28;20249;-67
2021/06/14 07:40:45;;;;;;;5.10;2.67;;;;;;;19.22;57.22;96153.13;5081117;28;20235;-67
2021/06/14 07:43:14;;;;;;;2.03;1.93;;;;;;;19.36;58.54;96149.22;5081458;28;20302;-68
2021/06/14 07:45:44;;;;;;;1.90;1.77;;;;;;;19.51;57.46;96140.78;5083583;28;20975;-68
2021/06/14 07:48:13;;;;;;;3.07;1.80;;;;;;;19.70;58.77;96138.88;5075966;28;20295;-68
2021/06/14 07:50:44;;;;;;;2.77;2.67;;;;;;;19.82;59.19;96139.72;5072428;28;20232;-67
2021/06/14 07:53:13;;;;;;;2.33;2.13;;;;;;;19.95;55.63;96131.50;5075931;28;20348;-67
2021/06/14 07:55:41;;;;;;;13.07;3.23;;;;;;;20.08;57.87;96125.09;5077620;28;20232;-68
2021/06/14 07:58:10;;;;;;;1.43;1.33;;;;;;;20.12;58.11;96120.91;5076995;28;20239;-67
2021/06/14 08:00:40;;;;;;;1.70;1.60;;;;;;;20.21;58.21;96124.03;5081648;28;20241;-67
2021/06/14 08:03:10;;;;;;;3.47;2.13;;;;;;;20.22;57.14;96120.31;5076995;28;20707;-67
2021/06/14 08:05:39;;;;;;;2.73;2.53;;;;;;;20.47;57.83;96123.59;5077386;28;20271;-68
2021/06/14 08:08:16;;;;;;;2.43;1.70;;;;;;;20.65;57.18;96120.75;5072551;28;20218;-68
2021/06/14 08:10:45;;;;;;;1.53;1.43;;;;;;;20.72;56.64;96121.47;5079748;28;20251;-67
2021/06/14 08:13:14;;;;;;;2.63;2.43;;;;;;;20.94;55.83;96128.91;5077668;28;20233;-68
2021/06/14 08:15:42;;;;;;;1.80;1.70;;;;;;;21.11;56.45;96128.94;5081405;28;20226;-67
2021/06/14 08:18:22;;;;;;;3.70;3.37;;;;;;;21.12;54.48;96131.41;5076585;28;20229;-68
2021/06/14 08:21:06;;;;;;;3.27;2.43;;;;;;;21.15;53.91;96125.56;5077982;28;20333;-67
2021/06/14 08:26:25;;;;;;;2.27;1.90;;;;;;;21.22;53.95;96136.97;5075179;28;20712;-68
2021/06/14 08:28:53;;;;;;;2.37;1.77;;;;;;;21.50;55.16;96132.69;5080512;28;20220;-68
2021/06/14 08:31:21;;;;;;;1.70;1.60;;;;;;;21.70;52.51;96133.03;5076724;28;20221;-68
2021/06/14 08:33:49;;;;;;;4.80;2.30;;;;;;;21.72;51.40;96128.25;5076720;28;20374;-68
2021/06/14 08:36:18;;;;;;;2.17;1.90;;;;;;;21.79;51.37;96126.22;5075526;28;20292;-67
2021/06/14 08:38:48;;;;;;;1.97;1.87;;;;;;;21.75;52.48;96135.81;5075916;28;20222;-67
2021/06/14 08:41:16;;;;;;;3.33;2.13;;;;;;;21.99;50.92;96131.13;5078771;28;20225;-65
2021/06/14 08:43:45;;;;;;;1.87;1.77;;;;;;;22.26;51.61;96125.94;5065593;28;20218;-68
2021/06/14 08:46:14;;;;;;;2.53;2.13;;;;;;;22.61;52.00;96131.00;5080332;28;20233;-68
2021/06/14 08:48:44;;;;;;;1.47;1.37;;;;;;;22.86;50.46;96124.34;5080804;28;20217;-68
2021/06/14 08:51:13;;;;;;;1.90;1.80;;;;;;;23.08;50.34;96127.06;5081362;28;20294;-68
2021/06/14 08:53:41;;;;;;;1.97;1.50;;;;;;;23.17;48.49;96130.94;5072305;28;20318;-68
2021/06/14 08:56:11;;;;;;;2.30;1.90;;;;;;;23.15;50.90;96127.69;5083097;28;20252;-68
2021/06/14 08:58:39;;;;;;;3.10;2.90;;;;;;;23.25;50.12;96109.75;5081399;28;20228;-68
2021/06/14 09:01:10;;;;;;;2.35;2.25;;;;;;;23.49;50.27;96118.34;5078580;28;20236;-68
2021/06/14 09:03:38;;;;;;;3.92;2.38;;;;;;;23.62;51.53;96113.66;5080982;28;20253;-68
2021/06/14 09:06:06;;;;;;;2.38;2.17;;;;;;;24.04;48.65;96111.88;5075825;28;20214;-68
2021/06/14 09:08:33;;;;;;;3.40;2.38;;;;;;;24.15;46.93;96103.88;5051857;28;20287;-68
2021/06/14 09:11:03;;;;;;;1.60;1.50;;;;;;;24.23;48.45;96106.06;5076811;28;20570;-69
2021/06/14 09:13:34;;;;;;;2.85;2.40;;;;;;;24.29;47.40;96110.44;5074904;28;20228;-68
2021/06/14 09:16:07;;;;;;;3.33;1.75;;;;;;;24.51;48.10;96107.66;5077323;28;20942;-68
2021/06/14 09:18:37;;;;;;;2.85;1.58;;;;;;;24.58;46.93;96100.94;5073486;28;20715;-68
2021/06/14 09:21:08;;;;;;;1.90;1.67;;;;;;;24.82;47.35;96103.22;5076162;28;20302;-68
2021/06/14 09:23:41;;;;;;;2.70;2.42;;;;;;;25.03;46.77;96104.97;5073227;28;20222;-68
2021/06/14 09:26:23;;;;;;;2.00;1.90;;;;;;;25.29;47.57;96096.94;5093977;28;20234;-68
2021/06/14 09:28:54;;;;;;;1.77;1.67;;;;;;;25.54;45.71;96097.00;5077404;28;20247;-68
2021/06/14 09:31:23;;;;;;;2.00;1.58;;;;;;;25.62;44.87;96104.59;5072941;28;20222;-68
2021/06/14 09:33:51;;;;;;;2.58;2.25;;;;;;;25.61;45.60;96108.38;5076667;28;20313;-68
2021/06/14 09:36:22;;;;;;;1.75;1.65;;;;;;;25.90;46.00;96091.66;5076530;28;20229;-68
2021/06/14 09:38:52;;;;;;;1.70;1.60;;;;;;;26.13;44.48;96107.34;5074803;28;20225;-68
2021/06/14 09:41:21;;;;;;;2.15;1.63;;;;;;;26.57;44.39;96098.66;5079749;28;20225;-67
2021/06/14 09:43:52;;;;;;;2.05;1.95;;;;;;;26.46;43.57;96097.06;5076509;28;20310;-68
2021/06/14 09:46:28;;;;;;;2.55;1.77;;;;;;;26.79;43.79;96087.47;5080608;28;20329;-68
2021/06/14 09:49:00;;;;;;;4.38;1.88;;;;;;;26.75;43.10;96081.81;5077185;28;20306;-68
2021/06/14 09:51:29;;;;;;;3.08;2.17;;;;;;;26.59;41.19;96085.66;5075021;28;20263;-68
2021/06/14 09:53:56;;;;;;;3.15;1.58;;;;;;;26.54;42.98;96091.91;5069703;28;20222;-68
2021/06/14 09:56:26;;;;;;;7.80;1.98;;;;;;;26.70;42.84;96089.97;5095286;28;20316;-68
2021/06/14 09:58:57;;;;;;;1.52;1.42;;;;;;;26.91;45.10;96086.09;5076382;28;20297;-68
2021/06/14 10:01:30;;;;;;;2.95;1.98;;;;;;;26.61;44.04;96088.91;5076067;28;20222;-68
2021/06/14 10:04:00;;;;;;;1.90;1.63;;;;;;;26.67;44.77;96087.78;5079001;28;20652;-69
2021/06/14 10:06:30;;;;;;;2.78;1.60;;;;;;;27.11;45.21;96084.41;5077609;28;20241;-68
2021/06/14 10:08:59;;;;;;;2.50;2.33;;;;;;;27.31;43.26;96078.88;5074966;28;20261;-68
2021/06/14 10:11:33;;;;;;;3.88;2.95;;;;;;;27.16;42.54;96077.09;5082051;28;20232;-68
2021/06/14 10:14:10;;;;;;;1.30;1.30;;;;;;;27.46;41.07;96086.94;5079307;28;20650;-69
2021/06/14 10:16:40;;;;;;;2.08;1.55;;;;;;;27.70;41.44;96087.06;5079045;28;20237;-69
2021/06/14 10:19:11;;;;;;;1.95;1.85;;;;;;;27.88;43.80;96076.63;5077053;28;20960;-69
2021/06/14 10:21:42;;;;;;;2.22;1.98;;;;;;;28.00;41.74;96072.47;5079333;28;20291;-69
2021/06/14 10:24:12;;;;;;;4.15;1.52;;;;;;;28.16;40.57;96073.13;5066525;28;20308;-69
2021/06/14 10:26:42;;;;;;;3.42;2.42;;;;;;;28.17;41.71;96073.97;5077950;28;20276;-69
2021/06/14 10:29:13;;;;;;;2.00;1.88;;;;;;;28.32;41.42;96066.50;5080283;28;20690;-68
2021/06/14 10:31:45;;;;;;;3.00;1.20;;;;;;;28.56;39.71;96066.53;5081849;28;20233;-69
2021/06/14 10:34:16;;;;;;;1.48;1.38;;;;;;;28.65;40.48;96068.63;5084432;28;20738;-69
2021/06/14 10:36:50;;;;;;;2.33;2.13;;;;;;;28.44;38.79;96062.59;5082826;28;20225;-69
2021/06/14 10:39:22;;;;;;;2.25;1.67;;;;;;;28.21;40.19;96069.56;5081433;28;20686;-68
2021/06/14 10:41:50;;;;;;;2.80;1.45;;;;;;;28.46;41.70;96065.84;5080718;28;20228;-68
2021/06/14 10:44:18;;;;;;;2.10;2.00;;;;;;;28.52;39.76;96060.03;5084931;28;20772;-69
2021/06/14 10:46:49;;;;;;;1.88;1.38;;;;;;;28.46;38.30;96055.78;5080775;28;20305;-68
2021/06/14 10:49:18;;;;;;;1.77;1.67;;;;;;;28.64;38.98;96056.94;5080795;28;20298;-68
2021/06/14 10:51:57;;;;;;;1.77;1.42;;;;;;;28.80;38.69;96046.69;5085184;28;20282;-68
2021/06/14 10:54:38;;;;;;;3.15;2.42;;;;;;;28.73;38.87;96043.53;5065435;28;20222;-68
2021/06/14 10:57:09;;;;;;;4.53;2.22;;;;;;;28.87;38.84;96036.28;5075598;28;20304;-68
2021/06/14 10:59:38;;;;;;;1.73;1.40;;;;;;;28.32;37.54;96036.63;5077028;28;20202;-69
2021/06/14 11:02:09;;;;;;;1.75;1.13;;;;;;;28.39;37.00;96030.88;5074008;28;20222;-68
2021/06/14 11:04:37;;;;;;;1.20;1.00;;;;;;;28.42;38.73;96035.72;5076305;28;20256;-68
2021/06/14 11:07:05;;;;;;;2.55;1.65;;;;;;;28.33;37.63;96024.69;5076691;28;20308;-69
2021/06/14 11:09:51;;;;;;;1.48;1.38;;;;;;;28.31;39.71;96021.47;5077584;27;20217;-68
2021/06/14 11:12:25;;;;;;;1.45;1.33;;;;;;;28.48;38.02;96017.47;5074717;28;20304;-68
2021/06/14 11:14:53;;;;;;;7.13;3.00;;;;;;;28.31;37.63;96020.66;5081280;28;20606;-69
2021/06/14 11:17:24;;;;;;;2.22;1.77;;;;;;;28.21;38.44;96015.28;5072848;28;20229;-69
2021/06/14 11:20:07;;;;;;;1.88;1.77;;;;;;;28.06;40.25;96014.34;5076593;28;20678;-68
2021/06/14 11:22:38;;;;;;;2.67;1.10;;;;;;;28.16;38.35;96007.19;5078718;28;20230;-69
2021/06/14 11:25:17;;;;;;;3.25;2.03;;;;;;;28.18;37.76;96005.03;5078130;28;20226;-68
2021/06/14 11:27:46;;;;;;;1.98;1.88;;;;;;;27.89;36.80;95996.88;5077028;28;20810;-69
2021/06/14 11:30:16;;;;;;;5.68;1.80;;;;;;;27.97;39.62;95988.13;5080413;28;20225;-69
2021/06/14 11:32:46;;;;;;;1.20;1.10;;;;;;;28.27;39.86;95981.59;5075170;28;20214;-69
2021/06/14 11:35:14;;;;;;;2.10;2.00;;;;;;;28.24;38.75;95982.16;5077039;28;20240;-68
2021/06/14 11:37:44;;;;;;;2.38;2.17;;;;;;;28.17;37.75;95984.41;5077893;28;20213;-69
2021/06/14 11:40:15;;;;;;;1.67;1.58;;;;;;;28.27;38.29;95979.69;5074538;28;20721;-69
2021/06/14 11:42:46;;;;;;;3.00;1.63;;;;;;;28.26;35.97;95982.69;5079832;28;20640;-69
2021/06/14 11:45:27;;;;;;;2.30;1.88;;;;;;;27.99;36.82;95975.91;5073160;28;20229;-69
2021/06/14 11:47:57;;;;;;;2.03;1.48;;;;;;;27.94;37.02;95973.22;5075650;28;20773;-69
2021/06/14 11:50:27;;;;;;;3.33;2.22;;;;;;;27.98;36.22;95968.88;5067299;28;20225;-69
2021/06/14 11:53:00;;;;;;;2.00;1.85;;;;;;;28.14;37.99;95965.97;5072596;28;20520;-69